sensor_id;sensor_type;location;lat;lon;timestamp;temperature;humidity
6252;DHT22;3159;52.414;9.784;2024-01-11T00:01:45;-4.10;99.90
6252;DHT22;3159;52.414;9.784;2024-01-11T00:04:13;-4.10;99.90
6252;DHT22;3159;52.414;9.784;2024-01-11T00:06:41;-4.10;99.90
6252;DHT22;3159;52.414;9.784;2024-01-11T00:09:08;-4.10;99.90
6252;DHT22;3159;52.414;9.784;2024-01-11T00:11:35;-4.10;99.90
6252;DHT22;3159;52.414;9.784;2024-01-11T00:14:01;-4.10;99.90
6252;DHT22;3159;52.414;9.784;2024-01-11T00:16:28;-4.20;99.90
6252;DHT22;3159;52.414;9.784;2024-01-11T00:18:55;-4.20;99.90
6252;DHT22;3159;52.414;9.784;2024-01-11T00:21:23;-4.20;99.90
6252;DHT22;3159;52.414;9.784;2024-01-11T00:23:50;-4.30;99.90
6252;DHT22;3159;52.414;9.784;2024-01-11T00:26:17;-4.30;99.90
6252;DHT22;3159;52.414;9.784;2024-01-11T00:28:44;-4.30;99.90
6252;DHT22;3159;52.414;9.784;2024-01-11T00:31:10;-4.30;99.90
6252;DHT22;3159;52.414;9.784;2024-01-11T00:33:36;-4.30;99.90
6252;DHT22;3159;52.414;9.784;2024-01-11T00:36:04;-4.30;99.90
6252;DHT22;3159;52.414;9.784;2024-01-11T00:38:32;-4.30;99.90
6252;DHT22;3159;52.414;9.784;2024-01-11T00:40:59;-4.30;99.90
6252;DHT22;3159;52.414;9.784;2024-01-11T00:43:25;-4.30;99.90
6252;DHT22;3159;52.414;9.784;2024-01-11T00:45:52;-4.30;99.90
6252;DHT22;3159;52.414;9.784;2024-01-11T00:48:19;-4.40;99.90
6252;DHT22;3159;52.414;9.784;2024-01-11T00:50:46;-4.40;99.90
6252;DHT22;3159;52.414;9.784;2024-01-11T00:53:12;-4.40;99.90
6252;DHT22;3159;52.414;9.784;2024-01-11T00:55:41;-4.40;99.90
6252;DHT22;3159;52.414;9.784;2024-01-11T00:58:08;-4.40;99.90
6252;DHT22;3159;52.414;9.784;2024-01-11T01:00:35;-4.40;99.90
6252;DHT22;3159;52.414;9.784;2024-01-11T01:03:02;-4.40;99.90
6252;DHT22;3159;52.414;9.784;2024-01-11T01:05:29;-4.50;99.90
6252;DHT22;3159;52.414;9.784;2024-01-11T01:07:56;-4.40;99.90
6252;DHT22;3159;52.414;9.784;2024-01-11T01:10:22;-4.40;99.90
6252;DHT22;3159;52.414;9.784;2024-01-11T01:12:51;-4.40;99.90
6252;DHT22;3159;52.414;9.784;2024-01-11T01:15:17;-4.50;99.90
6252;DHT22;3159;52.414;9.784;2024-01-11T01:17:44;-4.50;99.90
6252;DHT22;3159;52.414;9.784;2024-01-11T01:20:11;-4.50;99.90
6252;DHT22;3159;52.414;9.784;2024-01-11T01:22:38;-4.50;99.90
6252;DHT22;3159;52.414;9.784;2024-01-11T01:25:05;-4.50;99.90
6252;DHT22;3159;52.414;9.784;2024-01-11T01:27:32;-4.50;99.90
6252;DHT22;3159;52.414;9.784;2024-01-11T01:30:00;-4.50;99.90
6252;DHT22;3159;52.414;9.784;2024-01-11T01:32:27;-4.50;99.90
6252;DHT22;3159;52.414;9.784;2024-01-11T01:34:54;-4.50;99.90
6252;DHT22;3159;52.414;9.784;2024-01-11T01:37:21;-4.60;99.90
6252;DHT22;3159;52.414;9.784;2024-01-11T01:39:48;-4.50;99.90
6252;DHT22;3159;52.414;9.784;2024-01-11T01:42:14;-4.60;99.90
6252;DHT22;3159;52.414;9.784;2024-01-11T01:44:41;-4.60;99.90
6252;DHT22;3159;52.414;9.784;2024-01-11T01:47:10;-4.60;99.90
6252;DHT22;3159;52.414;9.784;2024-01-11T01:49:38;-4.60;99.90
6252;DHT22;3159;52.414;9.784;2024-01-11T01:52:06;-4.60;99.90
6252;DHT22;3159;52.414;9.784;2024-01-11T01:54:34;-4.60;99.90
6252;DHT22;3159;52.414;9.784;2024-01-11T01:57:02;-4.60;99.90
6252;DHT22;3159;52.414;9.784;2024-01-11T01:59:29;-4.60;99.90
6252;DHT22;3159;52.414;9.784;2024-01-11T02:01:57;-4.60;99.90
6252;DHT22;3159;52.414;9.784;2024-01-11T02:04:26;-4.60;99.90
6252;DHT22;3159;52.414;9.784;2024-01-11T02:06:53;-4.60;99.90
6252;DHT22;3159;52.414;9.784;2024-01-11T02:09:20;-4.70;99.90
6252;DHT22;3159;52.414;9.784;2024-01-11T02:11:50;-4.70;99.90
6252;DHT22;3159;52.414;9.784;2024-01-11T02:14:19;-4.70;99.90
6252;DHT22;3159;52.414;9.784;2024-01-11T02:16:45;-4.70;99.90
6252;DHT22;3159;52.414;9.784;2024-01-11T02:19:13;-4.80;99.90
6252;DHT22;3159;52.414;9.784;2024-01-11T02:21:42;-4.70;99.90
6252;DHT22;3159;52.414;9.784;2024-01-11T02:24:10;-4.70;99.90
6252;DHT22;3159;52.414;9.784;2024-01-11T02:26:57;-4.70;99.90
6252;DHT22;3159;52.414;9.784;2024-01-11T02:29:25;-4.70;99.90
6252;DHT22;3159;52.414;9.784;2024-01-11T02:31:52;-4.70;99.90
6252;DHT22;3159;52.414;9.784;2024-01-11T02:34:19;-4.80;99.90
6252;DHT22;3159;52.414;9.784;2024-01-11T02:36:46;-4.90;99.90
6252;DHT22;3159;52.414;9.784;2024-01-11T02:39:16;-5.00;99.90
6252;DHT22;3159;52.414;9.784;2024-01-11T02:41:45;-4.90;99.90
6252;DHT22;3159;52.414;9.784;2024-01-11T02:44:12;-4.80;99.90
6252;DHT22;3159;52.414;9.784;2024-01-11T02:46:38;-4.70;99.90
6252;DHT22;3159;52.414;9.784;2024-01-11T02:49:05;-4.70;99.90
6252;DHT22;3159;52.414;9.784;2024-01-11T02:51:32;-4.70;99.90
6252;DHT22;3159;52.414;9.784;2024-01-11T02:53:59;-4.70;99.90
6252;DHT22;3159;52.414;9.784;2024-01-11T02:56:27;-4.70;99.90
6252;DHT22;3159;52.414;9.784;2024-01-11T02:58:54;-4.70;99.90
6252;DHT22;3159;52.414;9.784;2024-01-11T03:01:21;-4.70;99.90
6252;DHT22;3159;52.414;9.784;2024-01-11T03:03:48;-4.70;99.90
6252;DHT22;3159;52.414;9.784;2024-01-11T03:06:14;-4.70;99.90
6252;DHT22;3159;52.414;9.784;2024-01-11T03:08:46;-4.70;99.90
6252;DHT22;3159;52.414;9.784;2024-01-11T03:11:13;-4.80;99.90
6252;DHT22;3159;52.414;9.784;2024-01-11T03:13:42;-4.90;99.90
6252;DHT22;3159;52.414;9.784;2024-01-11T03:16:09;-4.90;99.90
6252;DHT22;3159;52.414;9.784;2024-01-11T03:18:35;-4.90;99.90
6252;DHT22;3159;52.414;9.784;2024-01-11T03:21:02;-4.80;99.90
6252;DHT22;3159;52.414;9.784;2024-01-11T03:23:29;-4.80;99.90
6252;DHT22;3159;52.414;9.784;2024-01-11T03:25:56;-4.90;99.90
6252;DHT22;3159;52.414;9.784;2024-01-11T03:28:23;-4.80;99.90
6252;DHT22;3159;52.414;9.784;2024-01-11T03:30:51;-4.80;99.90
6252;DHT22;3159;52.414;9.784;2024-01-11T03:33:18;-4.80;99.90
6252;DHT22;3159;52.414;9.784;2024-01-11T03:35:45;-4.80;99.90
6252;DHT22;3159;52.414;9.784;2024-01-11T03:38:12;-4.80;99.90
6252;DHT22;3159;52.414;9.784;2024-01-11T03:40:39;-4.80;99.90
6252;DHT22;3159;52.414;9.784;2024-01-11T03:43:05;-5.00;99.90
6252;DHT22;3159;52.414;9.784;2024-01-11T03:45:33;-5.00;99.90
6252;DHT22;3159;52.414;9.784;2024-01-11T03:48:01;-4.90;99.90
6252;DHT22;3159;52.414;9.784;2024-01-11T03:50:28;-4.90;99.90
6252;DHT22;3159;52.414;9.784;2024-01-11T03:52:54;-4.90;99.90
6252;DHT22;3159;52.414;9.784;2024-01-11T03:55:21;-4.90;99.90
6252;DHT22;3159;52.414;9.784;2024-01-11T03:57:48;-4.80;99.90
6252;DHT22;3159;52.414;9.784;2024-01-11T04:00:15;-4.90;99.90
6252;DHT22;3159;52.414;9.784;2024-01-11T04:02:42;-4.80;99.90
6252;DHT22;3159;52.414;9.784;2024-01-11T04:05:10;-4.80;99.90
6252;DHT22;3159;52.414;9.784;2024-01-11T04:07:37;-4.80;99.90
6252;DHT22;3159;52.414;9.784;2024-01-11T04:10:05;-4.80;99.90
6252;DHT22;3159;52.414;9.784;2024-01-11T04:12:32;-4.80;99.90
6252;DHT22;3159;52.414;9.784;2024-01-11T04:14:58;-4.90;99.90
6252;DHT22;3159;52.414;9.784;2024-01-11T04:17:25;-4.90;99.90
6252;DHT22;3159;52.414;9.784;2024-01-11T04:19:52;-4.90;99.90
6252;DHT22;3159;52.414;9.784;2024-01-11T04:22:20;-4.90;99.90
6252;DHT22;3159;52.414;9.784;2024-01-11T04:24:47;-4.90;99.90
6252;DHT22;3159;52.414;9.784;2024-01-11T04:27:14;-4.90;99.90
6252;DHT22;3159;52.414;9.784;2024-01-11T04:29:40;-4.90;99.90
6252;DHT22;3159;52.414;9.784;2024-01-11T04:32:07;-4.90;99.90
6252;DHT22;3159;52.414;9.784;2024-01-11T04:34:34;-4.90;99.90
6252;DHT22;3159;52.414;9.784;2024-01-11T04:37:01;-4.90;99.90
6252;DHT22;3159;52.414;9.784;2024-01-11T04:39:29;-4.90;99.90
6252;DHT22;3159;52.414;9.784;2024-01-11T04:41:56;-4.90;99.90
6252;DHT22;3159;52.414;9.784;2024-01-11T04:44:22;-4.90;99.90
6252;DHT22;3159;52.414;9.784;2024-01-11T04:46:50;-4.90;99.90
6252;DHT22;3159;52.414;9.784;2024-01-11T04:49:17;-4.90;99.90
6252;DHT22;3159;52.414;9.784;2024-01-11T04:51:43;-4.90;99.90
6252;DHT22;3159;52.414;9.784;2024-01-11T04:54:10;-4.90;99.90
6252;DHT22;3159;52.414;9.784;2024-01-11T04:56:38;-4.90;99.90
6252;DHT22;3159;52.414;9.784;2024-01-11T04:59:05;-4.90;99.90
6252;DHT22;3159;52.414;9.784;2024-01-11T05:01:32;-5.10;99.90
6252;DHT22;3159;52.414;9.784;2024-01-11T05:03:59;-5.20;99.90
6252;DHT22;3159;52.414;9.784;2024-01-11T05:06:25;-5.10;99.90
6252;DHT22;3159;52.414;9.784;2024-01-11T05:08:52;-5.00;99.90
6252;DHT22;3159;52.414;9.784;2024-01-11T05:11:20;-5.00;99.90
6252;DHT22;3159;52.414;9.784;2024-01-11T05:13:48;-5.00;99.90
6252;DHT22;3159;52.414;9.784;2024-01-11T05:16:22;-5.00;99.90
6252;DHT22;3159;52.414;9.784;2024-01-11T05:18:49;-5.00;99.90
6252;DHT22;3159;52.414;9.784;2024-01-11T05:21:16;-4.90;99.90
6252;DHT22;3159;52.414;9.784;2024-01-11T05:23:44;-5.00;99.90
6252;DHT22;3159;52.414;9.784;2024-01-11T05:26:11;-5.00;99.90
6252;DHT22;3159;52.414;9.784;2024-01-11T05:28:37;-5.00;99.90
6252;DHT22;3159;52.414;9.784;2024-01-11T05:31:08;-5.00;99.90
6252;DHT22;3159;52.414;9.784;2024-01-11T05:33:35;-5.00;99.90
6252;DHT22;3159;52.414;9.784;2024-01-11T05:36:02;-5.00;99.90
6252;DHT22;3159;52.414;9.784;2024-01-11T05:38:29;-5.00;99.90
6252;DHT22;3159;52.414;9.784;2024-01-11T05:40:56;-5.00;99.90
6252;DHT22;3159;52.414;9.784;2024-01-11T05:43:23;-5.00;99.90
6252;DHT22;3159;52.414;9.784;2024-01-11T05:45:50;-5.10;99.90
6252;DHT22;3159;52.414;9.784;2024-01-11T05:48:18;-5.10;99.90
6252;DHT22;3159;52.414;9.784;2024-01-11T05:50:45;-5.20;99.90
6252;DHT22;3159;52.414;9.784;2024-01-11T05:53:12;-5.20;99.90
6252;DHT22;3159;52.414;9.784;2024-01-11T05:55:39;-5.10;99.90
6252;DHT22;3159;52.414;9.784;2024-01-11T05:58:06;-5.10;99.90
6252;DHT22;3159;52.414;9.784;2024-01-11T06:00:33;-5.00;99.90
6252;DHT22;3159;52.414;9.784;2024-01-11T06:03:00;-5.00;99.90
6252;DHT22;3159;52.414;9.784;2024-01-11T06:05:28;-5.00;99.90
6252;DHT22;3159;52.414;9.784;2024-01-11T06:07:55;-5.00;99.90
6252;DHT22;3159;52.414;9.784;2024-01-11T06:10:22;-4.90;99.90
6252;DHT22;3159;52.414;9.784;2024-01-11T06:12:48;-4.90;99.90
6252;DHT22;3159;52.414;9.784;2024-01-11T06:15:15;-4.90;99.90
6252;DHT22;3159;52.414;9.784;2024-01-11T06:17:42;-4.90;99.90
6252;DHT22;3159;52.414;9.784;2024-01-11T06:20:10;-4.90;99.90
6252;DHT22;3159;52.414;9.784;2024-01-11T06:22:38;-4.90;99.90
6252;DHT22;3159;52.414;9.784;2024-01-11T06:25:06;-5.00;99.90
6252;DHT22;3159;52.414;9.784;2024-01-11T06:27:33;-5.00;99.90
6252;DHT22;3159;52.414;9.784;2024-01-11T06:29:59;-5.00;99.90
6252;DHT22;3159;52.414;9.784;2024-01-11T06:32:26;-4.90;99.90
6252;DHT22;3159;52.414;9.784;2024-01-11T06:34:53;-4.90;99.90
6252;DHT22;3159;52.414;9.784;2024-01-11T06:37:20;-5.00;99.90
6252;DHT22;3159;52.414;9.784;2024-01-11T06:39:50;-5.00;99.90
6252;DHT22;3159;52.414;9.784;2024-01-11T06:42:16;-5.00;99.90
6252;DHT22;3159;52.414;9.784;2024-01-11T06:44:43;-4.90;99.90
6252;DHT22;3159;52.414;9.784;2024-01-11T06:47:10;-5.00;99.90
6252;DHT22;3159;52.414;9.784;2024-01-11T06:49:38;-5.00;99.90
6252;DHT22;3159;52.414;9.784;2024-01-11T06:52:05;-5.00;99.90
6252;DHT22;3159;52.414;9.784;2024-01-11T06:54:32;-5.00;99.90
6252;DHT22;3159;52.414;9.784;2024-01-11T06:57:00;-5.00;99.90
6252;DHT22;3159;52.414;9.784;2024-01-11T06:59:27;-5.00;99.90
6252;DHT22;3159;52.414;9.784;2024-01-11T07:01:54;-5.10;99.90
6252;DHT22;3159;52.414;9.784;2024-01-11T07:04:21;-5.00;99.90
6252;DHT22;3159;52.414;9.784;2024-01-11T07:06:47;-5.00;99.90
6252;DHT22;3159;52.414;9.784;2024-01-11T07:09:14;-4.90;99.90
6252;DHT22;3159;52.414;9.784;2024-01-11T07:11:43;-5.00;99.90
6252;DHT22;3159;52.414;9.784;2024-01-11T07:14:11;-4.90;99.90
6252;DHT22;3159;52.414;9.784;2024-01-11T07:16:38;-4.90;99.90
6252;DHT22;3159;52.414;9.784;2024-01-11T07:19:05;-4.90;99.90
6252;DHT22;3159;52.414;9.784;2024-01-11T07:21:31;-4.80;99.90
6252;DHT22;3159;52.414;9.784;2024-01-11T07:23:58;-5.00;99.90
6252;DHT22;3159;52.414;9.784;2024-01-11T07:26:25;-5.00;99.90
6252;DHT22;3159;52.414;9.784;2024-01-11T07:28:53;-5.20;99.90
6252;DHT22;3159;52.414;9.784;2024-01-11T07:31:22;-5.30;99.90
6252;DHT22;3159;52.414;9.784;2024-01-11T07:33:49;-5.40;99.90
6252;DHT22;3159;52.414;9.784;2024-01-11T07:36:16;-5.40;99.90
6252;DHT22;3159;52.414;9.784;2024-01-11T07:38:43;-5.30;99.90
6252;DHT22;3159;52.414;9.784;2024-01-11T07:41:10;-5.20;99.90
6252;DHT22;3159;52.414;9.784;2024-01-11T07:43:37;-5.30;99.90
6252;DHT22;3159;52.414;9.784;2024-01-11T07:46:03;-5.30;99.90
6252;DHT22;3159;52.414;9.784;2024-01-11T07:48:32;-5.20;99.90
6252;DHT22;3159;52.414;9.784;2024-01-11T07:50:59;-5.30;99.90
6252;DHT22;3159;52.414;9.784;2024-01-11T07:53:26;-5.20;99.90
6252;DHT22;3159;52.414;9.784;2024-01-11T07:55:52;-5.20;99.90
6252;DHT22;3159;52.414;9.784;2024-01-11T07:58:19;-5.10;99.90
6252;DHT22;3159;52.414;9.784;2024-01-11T08:00:47;-5.20;99.90
6252;DHT22;3159;52.414;9.784;2024-01-11T08:03:14;-5.10;99.90
6252;DHT22;3159;52.414;9.784;2024-01-11T08:05:42;-5.10;99.90
6252;DHT22;3159;52.414;9.784;2024-01-11T08:08:10;-5.10;99.90
6252;DHT22;3159;52.414;9.784;2024-01-11T08:10:36;-5.10;99.90
6252;DHT22;3159;52.414;9.784;2024-01-11T08:13:03;-5.20;99.90
6252;DHT22;3159;52.414;9.784;2024-01-11T08:15:30;-5.30;99.90
6252;DHT22;3159;52.414;9.784;2024-01-11T08:17:57;-5.30;99.90
6252;DHT22;3159;52.414;9.784;2024-01-11T08:20:25;-5.10;99.90
6252;DHT22;3159;52.414;9.784;2024-01-11T08:22:54;-5.00;99.90
6252;DHT22;3159;52.414;9.784;2024-01-11T08:25:21;-5.20;99.90
6252;DHT22;3159;52.414;9.784;2024-01-11T08:27:49;-5.10;99.90
6252;DHT22;3159;52.414;9.784;2024-01-11T08:30:16;-5.10;99.90
6252;DHT22;3159;52.414;9.784;2024-01-11T08:32:42;-5.10;99.90
6252;DHT22;3159;52.414;9.784;2024-01-11T08:35:10;-5.10;99.90
6252;DHT22;3159;52.414;9.784;2024-01-11T08:37:37;-5.00;99.90
6252;DHT22;3159;52.414;9.784;2024-01-11T08:40:07;-4.90;99.90
6252;DHT22;3159;52.414;9.784;2024-01-11T08:42:35;-4.70;99.90
6252;DHT22;3159;52.414;9.784;2024-01-11T08:45:01;-4.90;99.90
6252;DHT22;3159;52.414;9.784;2024-01-11T08:47:32;-4.80;99.90
6252;DHT22;3159;52.414;9.784;2024-01-11T08:50:00;-4.60;99.90
6252;DHT22;3159;52.414;9.784;2024-01-11T08:52:26;-4.50;99.90
6252;DHT22;3159;52.414;9.784;2024-01-11T08:54:53;-4.50;99.90
6252;DHT22;3159;52.414;9.784;2024-01-11T08:57:21;-4.50;99.90
6252;DHT22;3159;52.414;9.784;2024-01-11T08:59:48;-4.60;99.90
6252;DHT22;3159;52.414;9.784;2024-01-11T09:02:15;-4.60;99.90
6252;DHT22;3159;52.414;9.784;2024-01-11T09:04:42;-4.70;99.90
6252;DHT22;3159;52.414;9.784;2024-01-11T09:07:08;-4.60;99.90
6252;DHT22;3159;52.414;9.784;2024-01-11T09:09:35;-4.40;99.90
6252;DHT22;3159;52.414;9.784;2024-01-11T09:12:02;-4.50;99.90
6252;DHT22;3159;52.414;9.784;2024-01-11T09:14:31;-4.50;99.90
6252;DHT22;3159;52.414;9.784;2024-01-11T09:16:58;-4.40;99.90
6252;DHT22;3159;52.414;9.784;2024-01-11T09:19:24;-4.40;99.90
6252;DHT22;3159;52.414;9.784;2024-01-11T09:21:51;-4.30;99.90
6252;DHT22;3159;52.414;9.784;2024-01-11T09:24:19;-4.40;99.90
6252;DHT22;3159;52.414;9.784;2024-01-11T09:26:45;-4.30;99.90
6252;DHT22;3159;52.414;9.784;2024-01-11T09:29:15;-4.20;99.90
6252;DHT22;3159;52.414;9.784;2024-01-11T09:31:43;-4.30;99.90
6252;DHT22;3159;52.414;9.784;2024-01-11T09:34:10;-4.40;99.90
6252;DHT22;3159;52.414;9.784;2024-01-11T09:36:37;-4.50;99.90
6252;DHT22;3159;52.414;9.784;2024-01-11T09:39:05;-4.40;99.90
6252;DHT22;3159;52.414;9.784;2024-01-11T09:41:35;-4.40;99.90
6252;DHT22;3159;52.414;9.784;2024-01-11T09:44:05;-4.30;99.90
6252;DHT22;3159;52.414;9.784;2024-01-11T09:46:32;-4.30;99.90
6252;DHT22;3159;52.414;9.784;2024-01-11T09:49:00;-4.40;99.90
6252;DHT22;3159;52.414;9.784;2024-01-11T09:51:29;-4.30;99.90
6252;DHT22;3159;52.414;9.784;2024-01-11T09:53:58;-4.30;99.90
6252;DHT22;3159;52.414;9.784;2024-01-11T09:56:26;-4.20;99.90
6252;DHT22;3159;52.414;9.784;2024-01-11T09:58:54;-4.30;99.90
6252;DHT22;3159;52.414;9.784;2024-01-11T10:01:21;-4.30;99.90
6252;DHT22;3159;52.414;9.784;2024-01-11T10:03:48;-4.20;99.90
6252;DHT22;3159;52.414;9.784;2024-01-11T10:06:17;-4.30;99.90
6252;DHT22;3159;52.414;9.784;2024-01-11T10:08:45;-4.20;99.90
6252;DHT22;3159;52.414;9.784;2024-01-11T10:11:11;-4.10;99.90
6252;DHT22;3159;52.414;9.784;2024-01-11T10:13:38;-3.90;99.90
6252;DHT22;3159;52.414;9.784;2024-01-11T10:16:06;-3.90;99.90
6252;DHT22;3159;52.414;9.784;2024-01-11T10:18:33;-3.90;99.90
6252;DHT22;3159;52.414;9.784;2024-01-11T10:21:01;-3.80;99.90
6252;DHT22;3159;52.414;9.784;2024-01-11T10:23:33;-3.90;99.90
6252;DHT22;3159;52.414;9.784;2024-01-11T10:26:00;-4.00;99.90
6252;DHT22;3159;52.414;9.784;2024-01-11T10:28:27;-3.90;99.90
6252;DHT22;3159;52.414;9.784;2024-01-11T10:30:55;-3.90;99.90
6252;DHT22;3159;52.414;9.784;2024-01-11T10:33:22;-3.90;99.90
6252;DHT22;3159;52.414;9.784;2024-01-11T10:35:49;-3.70;99.90
6252;DHT22;3159;52.414;9.784;2024-01-11T10:38:17;-3.70;99.90
6252;DHT22;3159;52.414;9.784;2024-01-11T10:40:45;-3.70;99.90
6252;DHT22;3159;52.414;9.784;2024-01-11T10:43:15;-3.50;99.90
6252;DHT22;3159;52.414;9.784;2024-01-11T10:45:45;-3.50;99.90
6252;DHT22;3159;52.414;9.784;2024-01-11T10:48:15;-3.40;99.90
6252;DHT22;3159;52.414;9.784;2024-01-11T10:50:43;-3.40;99.90
6252;DHT22;3159;52.414;9.784;2024-01-11T10:53:23;-3.50;99.90
6252;DHT22;3159;52.414;9.784;2024-01-11T10:55:55;-3.50;99.90
6252;DHT22;3159;52.414;9.784;2024-01-11T10:58:23;-3.40;99.90
6252;DHT22;3159;52.414;9.784;2024-01-11T11:00:51;-3.30;99.90
6252;DHT22;3159;52.414;9.784;2024-01-11T11:03:20;-3.30;99.90
6252;DHT22;3159;52.414;9.784;2024-01-11T11:05:49;-3.30;99.90
6252;DHT22;3159;52.414;9.784;2024-01-11T11:08:17;-3.30;99.90
6252;DHT22;3159;52.414;9.784;2024-01-11T11:10:45;-3.30;99.90
6252;DHT22;3159;52.414;9.784;2024-01-11T11:13:14;-3.30;99.90
6252;DHT22;3159;52.414;9.784;2024-01-11T11:15:44;-3.20;99.90
6252;DHT22;3159;52.414;9.784;2024-01-11T11:18:12;-3.20;99.90
6252;DHT22;3159;52.414;9.784;2024-01-11T11:20:39;-3.10;99.90
6252;DHT22;3159;52.414;9.784;2024-01-11T11:23:08;-3.10;99.90
6252;DHT22;3159;52.414;9.784;2024-01-11T11:25:35;-3.00;99.90
6252;DHT22;3159;52.414;9.784;2024-01-11T11:28:03;-3.00;99.90
6252;DHT22;3159;52.414;9.784;2024-01-11T11:30:32;-3.10;99.90
6252;DHT22;3159;52.414;9.784;2024-01-11T11:33:07;-3.00;99.90
6252;DHT22;3159;52.414;9.784;2024-01-11T11:35:35;-2.90;99.90
6252;DHT22;3159;52.414;9.784;2024-01-11T11:38:02;-2.90;99.90
6252;DHT22;3159;52.414;9.784;2024-01-11T11:40:32;-2.90;99.90
6252;DHT22;3159;52.414;9.784;2024-01-11T11:43:02;-2.80;99.90
6252;DHT22;3159;52.414;9.784;2024-01-11T11:45:32;-2.80;99.90
6252;DHT22;3159;52.414;9.784;2024-01-11T11:47:58;-2.80;99.90
6252;DHT22;3159;52.414;9.784;2024-01-11T11:50:26;-2.70;99.90
6252;DHT22;3159;52.414;9.784;2024-01-11T11:52:54;-2.80;99.90
6252;DHT22;3159;52.414;9.784;2024-01-11T11:55:22;-2.80;99.90
6252;DHT22;3159;52.414;9.784;2024-01-11T11:57:50;-2.80;99.90
6252;DHT22;3159;52.414;9.784;2024-01-11T12:00:18;-2.70;99.90
6252;DHT22;3159;52.414;9.784;2024-01-11T12:02:47;-2.70;99.90
6252;DHT22;3159;52.414;9.784;2024-01-11T12:05:16;-2.70;99.90
6252;DHT22;3159;52.414;9.784;2024-01-11T12:07:42;-2.60;99.90
6252;DHT22;3159;52.414;9.784;2024-01-11T12:10:10;-2.60;99.90
6252;DHT22;3159;52.414;9.784;2024-01-11T12:12:37;-2.50;99.90
6252;DHT22;3159;52.414;9.784;2024-01-11T12:15:05;-2.40;99.90
6252;DHT22;3159;52.414;9.784;2024-01-11T12:17:33;-2.50;99.90
6252;DHT22;3159;52.414;9.784;2024-01-11T12:20:01;-2.30;99.90
6252;DHT22;3159;52.414;9.784;2024-01-11T12:22:29;-2.20;99.90
6252;DHT22;3159;52.414;9.784;2024-01-11T12:24:56;-2.20;99.90
6252;DHT22;3159;52.414;9.784;2024-01-11T12:27:23;-2.20;99.90
6252;DHT22;3159;52.414;9.784;2024-01-11T12:29:49;-2.30;99.90
6252;DHT22;3159;52.414;9.784;2024-01-11T12:32:17;-2.10;99.90
6252;DHT22;3159;52.414;9.784;2024-01-11T12:34:44;-2.10;99.90
6252;DHT22;3159;52.414;9.784;2024-01-11T12:37:13;-2.10;99.90
6252;DHT22;3159;52.414;9.784;2024-01-11T12:39:40;-2.10;99.90
6252;DHT22;3159;52.414;9.784;2024-01-11T12:42:06;-2.20;99.90
6252;DHT22;3159;52.414;9.784;2024-01-11T12:44:35;-2.20;99.90
6252;DHT22;3159;52.414;9.784;2024-01-11T12:47:03;-2.10;99.90
6252;DHT22;3159;52.414;9.784;2024-01-11T12:49:31;-2.00;99.90
6252;DHT22;3159;52.414;9.784;2024-01-11T12:51:57;-1.90;99.90
6252;DHT22;3159;52.414;9.784;2024-01-11T12:54:26;-1.90;99.90
6252;DHT22;3159;52.414;9.784;2024-01-11T12:56:53;-1.90;99.90
6252;DHT22;3159;52.414;9.784;2024-01-11T12:59:25;-1.90;99.90
6252;DHT22;3159;52.414;9.784;2024-01-11T13:01:52;-1.90;99.90
6252;DHT22;3159;52.414;9.784;2024-01-11T13:04:18;-1.90;99.90
6252;DHT22;3159;52.414;9.784;2024-01-11T13:06:46;-1.80;99.90
6252;DHT22;3159;52.414;9.784;2024-01-11T13:09:13;-1.90;99.90
6252;DHT22;3159;52.414;9.784;2024-01-11T13:11:41;-1.90;99.90
6252;DHT22;3159;52.414;9.784;2024-01-11T13:14:08;-1.80;99.90
6252;DHT22;3159;52.414;9.784;2024-01-11T13:16:40;-1.80;99.90
6252;DHT22;3159;52.414;9.784;2024-01-11T13:19:06;-1.70;99.90
6252;DHT22;3159;52.414;9.784;2024-01-11T13:21:33;-1.70;99.90
6252;DHT22;3159;52.414;9.784;2024-01-11T13:24:00;-1.80;99.90
6252;DHT22;3159;52.414;9.784;2024-01-11T13:26:27;-1.80;99.90
6252;DHT22;3159;52.414;9.784;2024-01-11T13:28:55;-1.80;99.90
6252;DHT22;3159;52.414;9.784;2024-01-11T13:31:22;-1.70;99.90
6252;DHT22;3159;52.414;9.784;2024-01-11T13:33:49;-1.70;99.90
6252;DHT22;3159;52.414;9.784;2024-01-11T13:36:16;-1.70;99.90
6252;DHT22;3159;52.414;9.784;2024-01-11T13:38:42;-1.70;99.90
6252;DHT22;3159;52.414;9.784;2024-01-11T13:41:09;-1.60;99.90
6252;DHT22;3159;52.414;9.784;2024-01-11T13:43:36;-1.60;99.90
6252;DHT22;3159;52.414;9.784;2024-01-11T13:46:04;-1.40;99.90
6252;DHT22;3159;52.414;9.784;2024-01-11T13:48:31;-1.20;99.90
6252;DHT22;3159;52.414;9.784;2024-01-11T13:50:58;-1.10;99.90
6252;DHT22;3159;52.414;9.784;2024-01-11T13:53:25;-1.10;99.90
6252;DHT22;3159;52.414;9.784;2024-01-11T13:55:52;-1.20;99.90
6252;DHT22;3159;52.414;9.784;2024-01-11T13:58:19;-1.20;99.90
6252;DHT22;3159;52.414;9.784;2024-01-11T14:00:45;-1.30;99.90
6252;DHT22;3159;52.414;9.784;2024-01-11T14:03:13;-1.30;99.90
6252;DHT22;3159;52.414;9.784;2024-01-11T14:05:41;-1.30;99.90
6252;DHT22;3159;52.414;9.784;2024-01-11T14:08:08;-1.20;99.90
6252;DHT22;3159;52.414;9.784;2024-01-11T14:10:35;-1.20;99.90
6252;DHT22;3159;52.414;9.784;2024-01-11T14:13:02;-1.10;99.90
6252;DHT22;3159;52.414;9.784;2024-01-11T14:15:29;-1.10;99.90
6252;DHT22;3159;52.414;9.784;2024-01-11T14:17:56;-1.10;99.90
6252;DHT22;3159;52.414;9.784;2024-01-11T14:20:24;-1.10;99.90
6252;DHT22;3159;52.414;9.784;2024-01-11T14:22:51;-1.10;99.90
6252;DHT22;3159;52.414;9.784;2024-01-11T14:25:19;-1.00;99.90
6252;DHT22;3159;52.414;9.784;2024-01-11T14:27:47;-1.10;99.90
6252;DHT22;3159;52.414;9.784;2024-01-11T14:30:14;-1.10;99.90
6252;DHT22;3159;52.414;9.784;2024-01-11T14:32:41;-1.10;99.90
6252;DHT22;3159;52.414;9.784;2024-01-11T14:35:08;-1.00;99.90
6252;DHT22;3159;52.414;9.784;2024-01-11T14:37:38;-1.00;99.90
6252;DHT22;3159;52.414;9.784;2024-01-11T14:40:06;-1.00;99.90
6252;DHT22;3159;52.414;9.784;2024-01-11T14:42:33;-1.10;99.90
6252;DHT22;3159;52.414;9.784;2024-01-11T14:44:59;-1.10;99.90
6252;DHT22;3159;52.414;9.784;2024-01-11T14:47:26;-1.00;99.90
6252;DHT22;3159;52.414;9.784;2024-01-11T14:49:53;-1.00;99.90
6252;DHT22;3159;52.414;9.784;2024-01-11T14:52:20;-1.00;99.90
6252;DHT22;3159;52.414;9.784;2024-01-11T14:54:48;-1.00;99.90
6252;DHT22;3159;52.414;9.784;2024-01-11T14:57:15;-0.90;99.90
6252;DHT22;3159;52.414;9.784;2024-01-11T14:59:42;-0.90;99.90
6252;DHT22;3159;52.414;9.784;2024-01-11T15:02:09;-0.80;99.90
6252;DHT22;3159;52.414;9.784;2024-01-11T15:04:36;-0.90;99.90
6252;DHT22;3159;52.414;9.784;2024-01-11T15:07:04;-0.80;99.90
6252;DHT22;3159;52.414;9.784;2024-01-11T15:09:30;-0.70;99.90
6252;DHT22;3159;52.414;9.784;2024-01-11T15:11:59;-0.70;99.90
6252;DHT22;3159;52.414;9.784;2024-01-11T15:14:26;-0.80;99.90
6252;DHT22;3159;52.414;9.784;2024-01-11T15:16:53;-0.90;99.90
6252;DHT22;3159;52.414;9.784;2024-01-11T15:19:20;-0.70;99.90
6252;DHT22;3159;52.414;9.784;2024-01-11T15:21:47;-0.60;99.90
6252;DHT22;3159;52.414;9.784;2024-01-11T15:24:14;-0.70;99.90
6252;DHT22;3159;52.414;9.784;2024-01-11T15:26:40;-0.70;99.90
6252;DHT22;3159;52.414;9.784;2024-01-11T15:29:09;-0.70;99.90
6252;DHT22;3159;52.414;9.784;2024-01-11T15:31:35;-0.70;99.90
6252;DHT22;3159;52.414;9.784;2024-01-11T15:34:05;-0.70;99.90
6252;DHT22;3159;52.414;9.784;2024-01-11T15:36:33;-0.60;99.90
6252;DHT22;3159;52.414;9.784;2024-01-11T15:39:00;-0.60;99.90
6252;DHT22;3159;52.414;9.784;2024-01-11T15:41:28;-0.60;99.90
6252;DHT22;3159;52.414;9.784;2024-01-11T15:43:55;-0.60;99.90
6252;DHT22;3159;52.414;9.784;2024-01-11T15:46:24;-0.60;99.90
6252;DHT22;3159;52.414;9.784;2024-01-11T15:48:51;-0.60;99.90
6252;DHT22;3159;52.414;9.784;2024-01-11T15:51:18;-0.60;99.90
6252;DHT22;3159;52.414;9.784;2024-01-11T15:53:44;-0.70;99.90
6252;DHT22;3159;52.414;9.784;2024-01-11T15:56:12;-0.60;99.90
6252;DHT22;3159;52.414;9.784;2024-01-11T15:58:39;-0.70;99.90
6252;DHT22;3159;52.414;9.784;2024-01-11T16:01:06;-0.60;99.90
6252;DHT22;3159;52.414;9.784;2024-01-11T16:03:34;-0.60;99.90